createdAt,value
2018-08-25T00:00:20.866Z,87.7
2018-08-25T00:01:21.540Z,87.7
2018-08-25T00:02:22.213Z,87.6
2018-08-25T00:03:22.886Z,87.5
2018-08-25T00:04:23.561Z,87.7
2018-08-25T00:05:24.235Z,87.7
2018-08-25T00:06:24.908Z,87.6
2018-08-25T00:07:25.580Z,87.9
2018-08-25T00:08:26.254Z,87.8
2018-08-25T00:09:26.932Z,87.8
2018-08-25T00:10:27.603Z,87.4
2018-08-25T00:11:28.275Z,87.8
2018-08-25T00:12:28.948Z,87.5
2018-08-25T00:13:29.621Z,87.6
2018-08-25T00:14:30.295Z,87.7
2018-08-25T00:15:30.968Z,87.8
2018-08-25T00:16:31.642Z,87.9
2018-08-25T00:17:32.317Z,87.8
2018-08-25T00:18:32.988Z,87.4
2018-08-25T00:19:33.660Z,87.6
2018-08-25T00:20:34.383Z,87.6
2018-08-25T00:21:35.053Z,87.8
2018-08-25T00:22:35.768Z,87.6
2018-08-25T00:23:36.442Z,87.7
2018-08-25T00:24:37.116Z,87.5
2018-08-25T00:25:37.788Z,87.5
2018-08-25T00:26:38.462Z,87.7
2018-08-25T00:27:39.135Z,87.5
2018-08-25T00:28:39.809Z,87.6
2018-08-25T00:29:40.482Z,87.6
2018-08-25T00:30:41.156Z,87.7
2018-08-25T00:31:41.831Z,87.5
2018-08-25T00:32:42.506Z,87.7
2018-08-25T00:33:43.179Z,87.9
2018-08-25T00:34:43.854Z,87.7
2018-08-25T00:35:44.527Z,87.6
2018-08-25T00:36:45.202Z,88.0
2018-08-25T00:37:45.902Z,87.7
2018-08-25T00:38:46.548Z,87.5
2018-08-25T00:39:47.221Z,87.6
2018-08-25T00:40:47.896Z,86.9
2018-08-25T00:41:48.587Z,86.8
2018-08-25T00:42:49.285Z,87.7
2018-08-25T00:43:49.958Z,87.5
2018-08-25T00:44:50.632Z,87.4
2018-08-25T00:45:51.312Z,87.4
2018-08-25T00:46:51.980Z,87.1
2018-08-25T00:47:52.701Z,87.3
2018-08-25T00:48:53.368Z,87.5
2018-08-25T00:49:54.081Z,87.2
2018-08-25T00:50:54.755Z,86.9
2018-08-25T00:51:55.427Z,86.9
2018-08-25T00:52:56.100Z,87.6
2018-08-25T00:53:56.774Z,87.3
2018-08-25T00:54:57.448Z,87.2
2018-08-25T00:55:58.123Z,86.8
2018-08-25T00:56:58.797Z,86.8
2018-08-25T00:57:59.469Z,86.5
2018-08-25T00:59:00.143Z,86.7
2018-08-25T01:00:00.861Z,86.7
2018-08-25T01:01:01.546Z,86.6
2018-08-25T01:02:02.250Z,86.3
2018-08-25T01:03:02.925Z,86.7
2018-08-25T01:04:03.639Z,86.3
2018-08-25T01:05:04.314Z,86.5
2018-08-25T01:06:04.987Z,86.3
2018-08-25T01:07:05.661Z,86.1
2018-08-25T01:08:06.334Z,86.3
2018-08-25T01:09:07.006Z,86.6
2018-08-25T01:10:07.680Z,86.0
2018-08-25T01:11:08.353Z,86.1
2018-08-25T01:12:09.027Z,86.3
2018-08-25T01:13:09.700Z,86.2
2018-08-25T01:14:10.373Z,86.5
2018-08-25T01:15:11.047Z,86.1
2018-08-25T01:16:11.720Z,86.1
2018-08-25T01:17:12.394Z,86.5
2018-08-25T01:18:13.071Z,86.0
2018-08-25T01:19:13.740Z,86.0
2018-08-25T01:20:14.413Z,86.0
2018-08-25T01:21:15.088Z,86.0
2018-08-25T01:22:15.760Z,86.0
2018-08-25T01:23:16.433Z,86.0
2018-08-25T01:24:17.108Z,86.5
2018-08-25T01:25:17.780Z,86.3
2018-08-25T01:26:18.453Z,85.9
2018-08-25T01:27:19.128Z,86.5
2018-08-25T01:28:19.802Z,85.4
2018-08-25T01:29:20.519Z,85.6
2018-08-25T01:30:21.191Z,85.3
2018-08-25T01:31:21.869Z,84.9
2018-08-25T01:32:22.539Z,84.4
2018-08-25T01:33:23.213Z,83.8
2018-08-25T01:34:23.887Z,84.1
2018-08-25T01:35:24.561Z,84.1
2018-08-25T01:36:25.233Z,83.1
2018-08-25T01:37:25.909Z,82.9
2018-08-25T01:38:26.581Z,83.1
2018-08-25T01:39:27.255Z,83.1
2018-08-25T01:40:27.928Z,83.3
2018-08-25T01:41:28.600Z,83.3
2018-08-25T01:43:33.957Z,83.6
2018-08-25T01:44:34.618Z,83.4
2018-08-25T01:45:35.279Z,83.7
2018-08-25T01:46:35.943Z,83.8
2018-08-25T01:47:36.648Z,83.8
2018-08-25T01:48:37.311Z,82.8
2018-08-25T01:49:37.970Z,82.9
2018-08-25T01:50:38.632Z,83.1
2018-08-25T01:51:39.296Z,82.5
2018-08-25T01:52:39.970Z,82.4
2018-08-25T01:53:40.647Z,82.5
2018-08-25T01:54:41.317Z,82.6
2018-08-25T01:55:41.997Z,83.0
2018-08-25T01:56:42.668Z,83.1
2018-08-25T01:57:43.343Z,82.1
2018-08-25T01:58:44.017Z,82.9
2018-08-25T01:59:44.689Z,82.9
2018-08-25T02:00:45.363Z,82.8
2018-08-25T02:01:46.047Z,82.9
2018-08-25T02:02:46.779Z,82.8
2018-08-25T02:03:47.431Z,83.1
2018-08-25T02:04:48.101Z,82.4
2018-08-25T02:05:48.775Z,82.8
2018-08-25T02:06:49.453Z,82.7
2018-08-25T02:07:50.122Z,83.3
2018-08-25T02:08:50.796Z,83.4
2018-08-25T02:09:51.468Z,84.1
2018-08-25T02:10:52.141Z,83.8
2018-08-25T02:11:52.816Z,83.9
2018-08-25T02:12:53.533Z,84.0
2018-08-25T02:13:54.207Z,83.8
2018-08-25T02:14:54.880Z,84.2
2018-08-25T02:15:55.552Z,85.3
2018-08-25T02:16:56.224Z,85.6
2018-08-25T02:17:56.899Z,85.4
2018-08-25T02:18:57.571Z,85.8
2018-08-25T02:19:58.245Z,86.3
2018-08-25T02:20:58.918Z,86.3
2018-08-25T02:21:59.591Z,86.5
2018-08-25T02:23:00.263Z,86.5
2018-08-25T02:24:00.981Z,86.8
2018-08-25T02:25:01.658Z,86.6
2018-08-25T02:26:02.327Z,86.4
2018-08-25T02:27:03.000Z,87.0
2018-08-25T02:28:03.686Z,86.8
2018-08-25T02:29:04.347Z,87.1
2018-08-25T02:30:05.020Z,87.3
2018-08-25T02:31:05.693Z,87.3
2018-08-25T02:32:06.367Z,87.3
2018-08-25T02:33:07.040Z,87.3
2018-08-25T02:34:07.711Z,87.1
2018-08-25T02:35:08.387Z,87.3
2018-08-25T02:36:09.057Z,87.3
2018-08-25T02:37:09.731Z,87.3
2018-08-25T02:38:10.407Z,87.4
2018-08-25T02:39:11.078Z,87.1
2018-08-25T02:40:11.752Z,87.5
2018-08-25T02:41:12.424Z,86.9
2018-08-25T02:42:13.141Z,87.0
2018-08-25T02:43:13.815Z,87.1
2018-08-25T02:44:14.487Z,87.3
2018-08-25T02:45:15.159Z,87.1
2018-08-25T02:46:15.834Z,86.6
2018-08-25T02:47:16.506Z,86.6
2018-08-25T02:48:17.179Z,87.1
2018-08-25T02:49:17.851Z,87.4
2018-08-25T02:50:18.527Z,87.4
2018-08-25T02:51:19.242Z,87.3
2018-08-25T02:52:19.916Z,87.3
2018-08-25T02:53:20.593Z,87.7
2018-08-25T02:54:21.261Z,87.8
2018-08-25T02:55:21.934Z,87.8
2018-08-25T02:56:22.608Z,87.7
2018-08-25T02:57:23.284Z,87.6
2018-08-25T02:58:23.954Z,87.7
2018-08-25T02:59:24.669Z,87.4
2018-08-25T03:00:25.341Z,87.8
2018-08-25T03:01:26.016Z,87.3
2018-08-25T03:02:26.732Z,87.7
2018-08-25T03:03:27.404Z,87.1
2018-08-25T03:04:28.078Z,87.3
2018-08-25T03:05:28.750Z,86.9
2018-08-25T03:06:29.422Z,86.4
2018-08-25T03:07:30.095Z,86.5
2018-08-25T03:08:30.769Z,86.2
2018-08-25T03:09:31.441Z,85.9
2018-08-25T03:10:32.115Z,85.5
2018-08-25T03:11:32.787Z,85.4
2018-08-25T03:12:33.461Z,85.5
2018-08-25T03:13:34.136Z,85.3
2018-08-25T03:14:34.806Z,85.1
2018-08-25T03:15:35.480Z,84.6
2018-08-25T03:16:36.156Z,84.5
2018-08-25T03:17:36.864Z,84.6
2018-08-25T03:18:37.539Z,84.6
2018-08-25T03:19:38.212Z,85.2
2018-08-25T03:20:38.886Z,84.6
2018-08-25T03:21:39.559Z,84.8
2018-08-25T03:22:40.230Z,84.4
2018-08-25T03:23:40.902Z,84.3
2018-08-25T03:24:41.619Z,84.5
2018-08-25T03:25:42.292Z,84.4
2018-08-25T03:26:42.964Z,83.7
2018-08-25T03:27:43.635Z,83.8
2018-08-25T03:28:44.309Z,84.2
2018-08-25T03:29:44.983Z,83.3
2018-08-25T03:30:45.698Z,83.2
2018-08-25T03:31:46.415Z,82.9
2018-08-25T03:32:47.088Z,83.1
2018-08-25T03:33:47.760Z,82.5
2018-08-25T03:34:48.433Z,82.2
2018-08-25T03:35:49.108Z,81.7
2018-08-25T03:36:49.785Z,81.4
2018-08-25T03:37:50.453Z,80.7
2018-08-25T03:38:51.126Z,80.5
2018-08-25T03:39:51.798Z,80.6
2018-08-25T03:40:52.472Z,80.1
2018-08-25T03:41:53.144Z,80.3
2018-08-25T03:42:53.818Z,80.3
2018-08-25T03:43:54.492Z,80.1
2018-08-25T03:44:55.206Z,80.0
2018-08-25T03:45:55.879Z,80.1
2018-08-25T03:46:56.551Z,80.2
2018-08-25T03:47:57.224Z,80.0
2018-08-25T03:48:57.897Z,79.8
2018-08-25T03:49:58.571Z,79.0
2018-08-25T03:50:59.287Z,79.3
2018-08-25T03:51:59.960Z,79.0
2018-08-25T03:53:00.633Z,78.6
2018-08-25T03:54:01.305Z,78.3
2018-08-25T03:55:01.984Z,78.3
2018-08-25T03:56:02.651Z,78.2
2018-08-25T03:57:03.326Z,78.0
2018-08-25T03:58:04.001Z,77.8
2018-08-25T03:59:04.672Z,77.8
2018-08-25T04:00:05.347Z,78.1
2018-08-25T04:01:06.060Z,78.3
2018-08-25T04:02:06.733Z,78.1
2018-08-25T04:03:07.407Z,77.9
2018-08-25T04:04:08.079Z,78.3
2018-08-25T04:05:08.752Z,78.5
2018-08-25T04:06:09.429Z,78.3
2018-08-25T04:07:10.099Z,78.5
2018-08-25T04:08:10.776Z,78.7
2018-08-25T04:09:11.450Z,78.7
2018-08-25T04:10:12.127Z,78.6
2018-08-25T04:11:12.796Z,78.6
2018-08-25T04:12:13.471Z,78.6
2018-08-25T04:13:14.145Z,78.6
2018-08-25T04:14:14.822Z,78.6
2018-08-25T04:15:15.493Z,78.6
2018-08-25T04:16:16.182Z,78.6
2018-08-25T04:17:16.881Z,78.7
2018-08-25T04:18:17.558Z,78.5
2018-08-25T04:19:18.231Z,78.3
2018-08-25T04:20:18.905Z,78.3
2018-08-25T04:21:19.578Z,78.4
2018-08-25T04:22:20.336Z,77.8
2018-08-25T04:23:20.965Z,78.0
2018-08-25T04:24:21.639Z,78.1
2018-08-25T04:25:22.314Z,78.1
2018-08-25T04:26:22.993Z,78.0
2018-08-25T04:27:23.708Z,78.6
2018-08-25T04:28:24.382Z,78.1
2018-08-25T04:29:25.057Z,78.6
2018-08-25T04:30:25.733Z,78.6
2018-08-25T04:31:26.450Z,78.6
2018-08-25T04:32:27.128Z,79.0
2018-08-25T04:33:27.863Z,78.8
2018-08-25T04:34:28.479Z,79.4
2018-08-25T04:35:29.159Z,79.5
2018-08-25T04:36:29.878Z,79.8
2018-08-25T04:37:30.551Z,79.9
2018-08-25T04:38:31.227Z,80.2
2018-08-25T04:39:31.953Z,80.2
2018-08-25T04:40:32.623Z,80.8
2018-08-25T04:41:33.300Z,81.5
2018-08-25T04:42:33.975Z,81.3
2018-08-25T04:43:34.652Z,81.6
2018-08-25T04:44:35.328Z,82.0
2018-08-25T04:45:36.003Z,82.0
2018-08-25T04:46:36.680Z,82.1
2018-08-25T04:47:37.401Z,82.0
2018-08-25T04:48:38.079Z,81.9
2018-08-25T04:49:38.753Z,81.9
2018-08-25T04:50:39.429Z,81.9
2018-08-25T04:51:40.104Z,81.8
2018-08-25T04:52:40.781Z,81.9
2018-08-25T04:53:41.460Z,82.4
2018-08-25T04:54:42.135Z,82.1
2018-08-25T04:55:42.811Z,81.8
2018-08-25T04:56:43.489Z,82.1
2018-08-25T04:57:44.183Z,82.0
2018-08-25T04:58:44.886Z,82.1
2018-08-25T04:59:45.564Z,82.1
2018-08-25T05:00:46.240Z,82.1
2018-08-25T05:01:46.938Z,82.0
2018-08-25T05:02:47.594Z,81.8
2018-08-25T05:03:48.272Z,81.9
2018-08-25T05:04:48.947Z,81.7
2018-08-25T05:05:49.627Z,81.9
2018-08-25T05:06:50.302Z,81.7
2018-08-25T05:07:51.006Z,81.6
2018-08-25T05:08:51.656Z,81.4
2018-08-25T05:09:52.333Z,81.4
2018-08-25T05:10:53.011Z,80.9
2018-08-25T05:11:53.690Z,81.2
2018-08-25T05:12:54.409Z,81.3
2018-08-25T05:13:55.085Z,81.4
2018-08-25T05:14:55.764Z,81.2
2018-08-25T05:15:56.439Z,81.5
2018-08-25T05:16:57.120Z,81.4
2018-08-25T05:17:57.837Z,81.1
2018-08-25T05:18:58.513Z,81.4
2018-08-25T05:19:59.190Z,80.6
2018-08-25T05:20:59.911Z,80.9
2018-08-25T05:22:00.687Z,81.0
2018-08-25T05:23:01.311Z,80.7
2018-08-25T05:24:01.987Z,80.6
2018-08-25T05:25:02.665Z,80.2
2018-08-25T05:26:03.339Z,80.1
2018-08-25T05:27:04.061Z,80.1
2018-08-25T05:28:04.782Z,80.1
2018-08-25T05:29:05.460Z,79.8
2018-08-25T05:30:06.136Z,79.3
2018-08-25T05:31:06.814Z,78.8
2018-08-25T05:32:07.492Z,78.2
2018-08-25T05:33:08.169Z,77.2
2018-08-25T05:34:08.888Z,77.5
2018-08-25T05:35:09.565Z,77.6
2018-08-25T05:36:10.284Z,77.4
2018-08-25T05:37:10.962Z,77.6
2018-08-25T05:38:11.638Z,77.7
2018-08-25T05:39:12.316Z,76.8
2018-08-25T05:40:12.994Z,77.0
2018-08-25T05:41:13.673Z,76.7
2018-08-25T05:42:14.348Z,76.9
2018-08-25T05:43:15.028Z,76.8
2018-08-25T05:44:15.850Z,77.4
2018-08-25T05:45:16.423Z,76.8
2018-08-25T05:46:17.100Z,76.9
2018-08-25T05:47:17.777Z,77.0
2018-08-25T05:48:18.454Z,76.6
2018-08-25T05:49:19.132Z,76.3
2018-08-25T05:50:19.807Z,76.7
2018-08-25T05:51:20.537Z,76.1
2018-08-25T05:52:21.215Z,75.9
2018-08-25T05:53:21.893Z,76.0
2018-08-25T05:54:22.575Z,75.9
2018-08-25T05:55:23.293Z,75.1
2018-08-25T05:56:23.971Z,75.5
2018-08-25T05:57:24.651Z,74.8
2018-08-25T05:58:25.328Z,74.9
2018-08-25T05:59:26.006Z,73.9
2018-08-25T06:00:26.686Z,74.4
2018-08-25T06:01:27.365Z,74.3
2018-08-25T06:02:28.042Z,74.2
2018-08-25T06:03:28.722Z,73.7
2018-08-25T06:04:29.443Z,73.3
2018-08-25T06:05:30.121Z,73.6
2018-08-25T06:06:30.857Z,73.6
2018-08-25T06:07:31.478Z,73.6
2018-08-25T06:08:32.158Z,73.0
2018-08-25T06:09:32.878Z,72.8
2018-08-25T06:10:33.558Z,72.9
2018-08-25T06:11:34.237Z,72.8
2018-08-25T06:12:34.913Z,72.4
2018-08-25T06:13:35.651Z,72.5
2018-08-25T06:14:36.275Z,72.0
2018-08-25T06:15:36.950Z,72.3
2018-08-25T06:16:37.629Z,71.6
2018-08-25T06:17:38.366Z,72.1
2018-08-25T06:18:38.984Z,71.5
2018-08-25T06:19:39.663Z,70.2
2018-08-25T06:20:40.341Z,70.4
2018-08-25T06:21:41.023Z,69.6
2018-08-25T06:22:41.741Z,69.9
2018-08-25T06:23:42.421Z,69.6
2018-08-25T06:24:43.100Z,69.5
2018-08-25T06:25:43.778Z,69.8
2018-08-25T06:26:44.458Z,69.3
2018-08-25T06:27:45.137Z,69.4
2018-08-25T06:28:46.168Z,68.9
2018-08-25T06:29:46.816Z,68.8
2018-08-25T06:30:47.458Z,68.0
2018-08-25T06:31:48.135Z,67.7
2018-08-25T06:32:48.814Z,67.6
2018-08-25T06:33:49.494Z,68.3
2018-08-25T06:34:50.172Z,67.8
2018-08-25T06:35:50.853Z,68.3
2018-08-25T06:36:51.530Z,68.4
2018-08-25T06:37:52.210Z,68.3
2018-08-25T06:38:52.888Z,67.7
2018-08-25T06:39:53.567Z,68.0
2018-08-25T06:40:54.247Z,67.2
2018-08-25T06:41:54.926Z,67.1
2018-08-25T06:42:55.605Z,66.7
2018-08-25T06:43:56.329Z,66.4
2018-08-25T06:44:57.009Z,64.0
2018-08-25T06:45:57.688Z,62.5
2018-08-25T06:46:58.372Z,60.2
2018-08-25T06:47:59.053Z,57.5
2018-08-25T06:48:59.733Z,55.9
2018-08-25T06:50:00.419Z,54.1
2018-08-25T06:51:01.097Z,51.8
2018-08-25T06:52:01.777Z,50.1
2018-08-25T06:53:02.460Z,48.7
2018-08-25T06:54:03.140Z,46.8
2018-08-25T06:55:03.820Z,46.4
2018-08-25T06:56:04.502Z,45.9
2018-08-25T06:57:05.184Z,44.8
2018-08-25T06:58:05.909Z,44.1
2018-08-25T06:59:06.595Z,42.7
2018-08-25T07:00:07.277Z,42.4
2018-08-25T07:01:07.958Z,41.3
2018-08-25T07:02:08.642Z,40.3
2018-08-25T07:03:09.325Z,39.6
2018-08-25T07:04:10.009Z,38.3
2018-08-25T07:05:10.689Z,38.2
2018-08-25T07:06:11.375Z,37.2
2018-08-25T07:07:12.057Z,37.1
2018-08-25T07:08:12.741Z,36.4
2018-08-25T07:09:13.426Z,36.0
2018-08-25T07:10:14.112Z,35.4
2018-08-25T07:11:14.793Z,35.0
2018-08-25T07:12:15.482Z,35.0
2018-08-25T07:13:16.163Z,34.5
2018-08-25T07:14:16.851Z,34.2
2018-08-25T07:15:17.535Z,33.6
2018-08-25T07:16:18.218Z,33.6
2018-08-25T07:17:18.903Z,33.3
2018-08-25T07:18:19.589Z,33.6
2018-08-25T07:19:20.273Z,33.5
2018-08-25T07:20:20.961Z,33.5
2018-08-25T07:21:21.648Z,33.3
2018-08-25T07:22:22.332Z,32.3
2018-08-25T07:23:23.021Z,31.8
2018-08-25T07:24:23.703Z,31.3
2018-08-25T07:25:24.389Z,31.1
2018-08-25T07:26:25.075Z,30.4
2018-08-25T07:27:25.762Z,30.4
2018-08-25T07:28:26.448Z,30.2
2018-08-25T07:29:27.133Z,30.3
2018-08-25T07:30:27.823Z,29.9
2018-08-25T07:31:28.549Z,29.5
2018-08-25T07:32:29.235Z,29.9
2018-08-25T07:33:29.921Z,29.7
2018-08-25T07:34:30.616Z,29.1
2018-08-25T07:35:31.294Z,28.7
2018-08-25T07:36:31.983Z,28.8
2018-08-25T07:37:32.667Z,28.7
2018-08-25T07:38:33.355Z,28.9
2018-08-25T07:39:34.044Z,28.3
2018-08-25T07:40:34.773Z,27.9
2018-08-25T07:41:35.493Z,29.0
2018-08-25T07:42:36.191Z,29.6
2018-08-25T07:43:36.921Z,29.2
2018-08-25T07:44:37.607Z,28.0
2018-08-25T07:45:38.294Z,28.0
2018-08-25T07:46:38.979Z,28.6
2018-08-25T07:47:39.670Z,29.4
2018-08-25T07:48:40.428Z,30.3
2018-08-25T07:49:41.133Z,30.9
2018-08-25T07:50:41.730Z,32.0
2018-08-25T07:51:42.462Z,33.0
2018-08-25T07:52:43.156Z,32.9
2018-08-25T07:53:43.931Z,33.6
2018-08-25T07:54:44.522Z,33.8
2018-08-25T07:55:45.210Z,34.1
2018-08-25T07:56:45.893Z,35.4
2018-08-25T07:57:46.579Z,35.7
2018-08-25T07:58:47.268Z,36.1
2018-08-25T07:59:47.997Z,36.5
2018-08-25T08:00:48.726Z,37.0
2018-08-25T08:01:49.410Z,37.7
2018-08-25T08:02:50.102Z,37.6
2018-08-25T08:03:50.827Z,37.7
2018-08-25T08:04:51.536Z,37.8
2018-08-25T08:05:52.200Z,37.3
2018-08-25T08:06:52.936Z,36.1
2018-08-25T08:07:53.621Z,36.1
2018-08-25T08:08:54.305Z,35.5
2018-08-25T08:09:54.992Z,34.3
2018-08-25T08:10:55.677Z,33.4
2018-08-25T08:11:56.440Z,32.3
2018-08-25T08:12:57.049Z,31.7
2018-08-25T08:13:57.739Z,30.8
2018-08-25T08:14:58.515Z,30.7
2018-08-25T08:15:59.200Z,30.8
2018-08-25T08:16:59.889Z,30.2
2018-08-25T08:18:00.618Z,30.3
2018-08-25T08:19:01.308Z,29.1
2018-08-25T08:20:02.034Z,29.6
2018-08-25T08:21:02.721Z,29.9
2018-08-25T08:22:03.408Z,30.5
2018-08-25T08:23:04.095Z,31.2
2018-08-25T08:24:04.781Z,31.4
2018-08-25T08:25:05.466Z,32.0
2018-08-25T08:26:06.155Z,32.2
2018-08-25T08:27:06.841Z,33.1
2018-08-25T08:28:07.527Z,33.5
2018-08-25T08:29:08.213Z,34.3
2018-08-25T08:30:08.898Z,35.2
2018-08-25T08:31:09.583Z,35.6
2018-08-25T08:32:10.270Z,36.8
2018-08-25T08:33:10.960Z,36.9
2018-08-25T08:34:11.683Z,37.2
2018-08-25T08:35:12.370Z,38.2
2018-08-25T08:36:13.054Z,38.9
2018-08-25T08:37:13.739Z,39.5
2018-08-25T08:38:14.424Z,41.0
2018-08-25T08:39:15.109Z,41.1
2018-08-25T08:40:15.837Z,41.8
2018-08-25T08:41:16.533Z,42.4
2018-08-25T08:42:17.256Z,42.2
2018-08-25T08:43:17.890Z,42.7
2018-08-25T08:44:18.573Z,42.7
2018-08-25T08:45:19.291Z,43.3
2018-08-25T08:46:19.941Z,43.8
2018-08-25T08:47:20.680Z,43.5
2018-08-25T08:48:21.308Z,43.6
2018-08-25T08:49:21.992Z,44.3
2018-08-25T08:50:22.696Z,44.0
2018-08-25T08:51:23.361Z,44.6
2018-08-25T08:52:24.043Z,44.2
2018-08-25T08:53:24.727Z,43.9
2018-08-25T08:54:25.424Z,44.5
2018-08-25T08:55:26.088Z,44.3
2018-08-25T08:56:26.776Z,44.3
2018-08-25T08:57:27.496Z,44.3
2018-08-25T08:58:28.181Z,44.2
2018-08-25T08:59:28.864Z,44.2
2018-08-25T09:00:29.544Z,44.5
2018-08-25T09:01:30.247Z,43.7
2018-08-25T09:02:30.988Z,43.4
2018-08-25T09:03:31.763Z,43.0
2018-08-25T09:04:32.367Z,43.2
2018-08-25T09:05:33.045Z,43.2
2018-08-25T09:06:33.746Z,42.2
2018-08-25T09:07:34.453Z,42.0
2018-08-25T09:08:35.178Z,42.2
2018-08-25T09:09:35.860Z,42.2
2018-08-25T09:10:36.542Z,42.8
2018-08-25T09:11:37.270Z,43.1
2018-08-25T09:12:37.908Z,42.2
2018-08-25T09:13:38.612Z,42.3
2018-08-25T09:14:39.316Z,43.0
2018-08-25T09:15:39.999Z,42.5
2018-08-25T09:16:40.681Z,43.0
2018-08-25T09:17:41.365Z,43.1
2018-08-25T09:18:42.048Z,43.0
2018-08-25T09:19:42.728Z,43.0
2018-08-25T09:20:43.410Z,43.4
2018-08-25T09:21:44.095Z,43.0
2018-08-25T09:22:44.821Z,42.9
2018-08-25T09:23:45.728Z,43.6
2018-08-25T09:24:46.439Z,43.9
2018-08-25T09:25:47.116Z,44.1
2018-08-25T09:26:47.858Z,44.1
2018-08-25T09:27:48.480Z,44.1
2018-08-25T09:28:49.164Z,44.5
2018-08-25T09:29:49.847Z,44.4
2018-08-25T09:30:50.529Z,44.8
2018-08-25T09:31:51.213Z,44.7
2018-08-25T09:32:51.895Z,44.8
2018-08-25T09:33:52.577Z,45.0
2018-08-25T09:34:53.262Z,44.8
2018-08-25T09:35:54.041Z,44.9
2018-08-25T09:36:54.736Z,45.1
2018-08-25T09:37:55.309Z,45.6
2018-08-25T09:38:55.991Z,45.7
2018-08-25T09:39:56.673Z,45.9
2018-08-25T09:40:57.356Z,45.9
2018-08-25T09:41:58.038Z,46.5
2018-08-25T09:42:58.721Z,46.3
2018-08-25T09:43:59.403Z,46.3
2018-08-25T09:45:00.084Z,46.1
2018-08-25T09:46:00.765Z,47.0
2018-08-25T09:47:01.523Z,47.1
2018-08-25T09:48:02.167Z,47.8
2018-08-25T09:49:02.849Z,47.7
2018-08-25T09:50:03.530Z,48.2
2018-08-25T09:51:04.214Z,49.4
2018-08-25T09:52:04.894Z,50.9
2018-08-25T09:53:05.575Z,50.4
2018-08-25T09:54:06.259Z,50.6
2018-08-25T09:55:06.939Z,51.7
2018-08-25T09:56:07.622Z,52.1
2018-08-25T09:57:08.303Z,52.5
2018-08-25T09:58:08.984Z,53.3
2018-08-25T09:59:09.668Z,54.8
2018-08-25T10:00:10.389Z,55.7
2018-08-25T10:01:11.071Z,55.8
2018-08-25T10:02:11.753Z,57.2
2018-08-25T10:03:12.433Z,57.1
2018-08-25T10:04:13.139Z,57.9
2018-08-25T10:05:13.891Z,60.0
2018-08-25T10:06:14.523Z,58.6
2018-08-25T10:07:15.204Z,60.0
2018-08-25T10:08:15.884Z,59.3
2018-08-25T10:09:16.565Z,59.0
2018-08-25T10:10:17.246Z,58.9
2018-08-25T10:11:17.926Z,58.2
2018-08-25T10:12:18.608Z,58.9
2018-08-25T10:13:19.287Z,60.1
2018-08-25T10:14:19.970Z,58.3
2018-08-25T10:15:20.652Z,58.3
2018-08-25T10:16:21.336Z,58.8
2018-08-25T10:17:22.014Z,59.7
2018-08-25T10:18:22.696Z,59.0
2018-08-25T10:19:23.375Z,59.0
2018-08-25T10:20:24.061Z,59.4
2018-08-25T10:21:24.739Z,60.2
2018-08-25T10:22:25.462Z,58.4
2018-08-25T10:23:26.187Z,58.3
2018-08-25T10:24:26.825Z,57.6
2018-08-25T10:25:27.508Z,57.4
2018-08-25T10:26:28.186Z,57.4
2018-08-25T10:27:28.867Z,57.6
2018-08-25T10:28:29.557Z,57.0
2018-08-25T10:29:30.230Z,57.1
2018-08-25T10:30:30.912Z,57.9
2018-08-25T10:31:31.592Z,57.8
2018-08-25T10:32:32.274Z,58.1
2018-08-25T10:33:32.957Z,57.6
2018-08-25T10:34:33.639Z,57.9
2018-08-25T10:35:34.362Z,57.9
2018-08-25T10:36:35.003Z,57.8
2018-08-25T10:37:35.684Z,57.4
2018-08-25T10:38:36.370Z,56.9
2018-08-25T10:39:37.092Z,57.2
2018-08-25T10:40:37.783Z,57.3
2018-08-25T10:41:38.469Z,57.2
2018-08-25T10:42:39.138Z,57.1
2018-08-25T10:43:39.861Z,56.5
2018-08-25T10:44:40.542Z,56.5
2018-08-25T10:45:41.224Z,56.4
2018-08-25T10:46:41.905Z,55.9
2018-08-25T10:47:42.634Z,55.6
2018-08-25T10:48:43.312Z,55.7
2018-08-25T10:49:43.994Z,56.3
2018-08-25T10:50:44.675Z,55.5
2018-08-25T10:51:45.358Z,55.0
2018-08-25T10:52:46.040Z,54.7
2018-08-25T10:53:46.738Z,54.0
2018-08-25T10:54:47.403Z,53.3
2018-08-25T10:55:48.085Z,53.2
2018-08-25T10:56:48.800Z,53.4
2018-08-25T10:57:49.509Z,52.7
2018-08-25T10:58:50.214Z,53.1
2018-08-25T10:59:50.940Z,52.5
2018-08-25T11:00:51.846Z,52.3
2018-08-25T11:01:52.337Z,52.4
2018-08-25T11:02:53.052Z,52.1
2018-08-25T11:03:53.753Z,51.6
2018-08-25T11:04:54.435Z,51.9
2018-08-25T11:05:55.122Z,51.9
2018-08-25T11:06:55.832Z,51.7
2018-08-25T11:07:56.524Z,51.9
2018-08-25T11:08:57.313Z,52.2
2018-08-25T11:09:57.887Z,51.2
2018-08-25T11:10:58.570Z,51.8
2018-08-25T11:11:59.266Z,50.9
2018-08-25T11:12:59.977Z,51.0
2018-08-25T11:14:00.662Z,50.9
2018-08-25T11:15:01.347Z,51.6
2018-08-25T11:16:02.027Z,51.1
2018-08-25T11:17:02.707Z,51.3
2018-08-25T11:18:03.425Z,51.2
2018-08-25T11:19:04.112Z,50.9
2018-08-25T11:20:04.797Z,50.6
2018-08-25T11:21:05.519Z,50.3
2018-08-25T11:22:06.200Z,50.3
2018-08-25T11:23:06.883Z,50.3
2018-08-25T11:24:07.609Z,50.3
2018-08-25T11:25:08.289Z,50.7
2018-08-25T11:26:08.969Z,50.4
2018-08-25T11:27:09.652Z,50.4
2018-08-25T11:28:10.337Z,50.2
2018-08-25T11:29:11.099Z,49.9
2018-08-25T11:30:11.700Z,50.3
2018-08-25T11:31:12.422Z,49.9
2018-08-25T11:32:13.102Z,49.9
2018-08-25T11:33:13.791Z,50.1
2018-08-25T11:34:14.468Z,50.3
2018-08-25T11:35:15.150Z,50.3
2018-08-25T11:36:15.832Z,50.1
2018-08-25T11:37:16.535Z,49.3
2018-08-25T11:38:17.196Z,49.4
2018-08-25T11:39:17.878Z,49.5
2018-08-25T11:40:18.560Z,50.3
2018-08-25T11:41:19.241Z,50.1
2018-08-25T11:42:19.923Z,50.3
2018-08-25T11:43:20.606Z,50.6
2018-08-25T11:44:21.289Z,51.1
2018-08-25T11:45:21.968Z,51.1
2018-08-25T11:46:22.650Z,51.8
2018-08-25T11:47:23.332Z,52.0
2018-08-25T11:48:24.013Z,52.6
2018-08-25T11:49:24.698Z,53.6
2018-08-25T11:50:25.378Z,53.2
2018-08-25T11:51:26.061Z,53.2
2018-08-25T11:52:26.741Z,52.8
2018-08-25T11:53:27.422Z,52.9
2018-08-25T11:54:28.103Z,52.8
2018-08-25T11:55:28.785Z,52.7
2018-08-25T11:56:29.465Z,53.1
2018-08-25T11:57:30.149Z,52.8
2018-08-25T11:58:30.827Z,53.6
2018-08-25T11:59:31.513Z,53.0
2018-08-25T12:00:32.191Z,53.5
2018-08-25T12:01:32.872Z,53.7
2018-08-25T12:02:33.553Z,53.8
2018-08-25T12:03:34.339Z,53.6
2018-08-25T12:04:34.912Z,53.2
2018-08-25T12:05:35.594Z,53.5
2018-08-25T12:06:36.274Z,54.7
2018-08-25T12:07:36.956Z,55.4
2018-08-25T12:08:37.637Z,55.2
2018-08-25T12:09:38.367Z,54.6
2018-08-25T12:10:39.002Z,53.8
2018-08-25T12:11:39.682Z,53.3
2018-08-25T12:12:40.364Z,53.7
2018-08-25T12:13:41.048Z,53.3
2018-08-25T12:14:41.770Z,53.8
2018-08-25T12:15:42.453Z,53.1
2018-08-25T12:16:43.134Z,53.2
2018-08-25T12:17:43.816Z,53.5
2018-08-25T12:18:44.498Z,53.1
2018-08-25T12:19:45.222Z,52.9
2018-08-25T12:20:45.911Z,52.7
2018-08-25T12:21:46.629Z,53.1
2018-08-25T12:22:47.309Z,52.2
2018-08-25T12:23:47.992Z,52.5
2018-08-25T12:24:48.674Z,52.1
2018-08-25T12:25:49.355Z,51.7
2018-08-25T12:26:50.036Z,51.2
2018-08-25T12:27:50.759Z,50.5
2018-08-25T12:28:51.444Z,50.4
2018-08-25T12:29:52.168Z,50.9
2018-08-25T12:30:52.849Z,51.0
2018-08-25T12:31:53.530Z,50.0
2018-08-25T12:32:54.258Z,49.2
2018-08-25T12:33:54.979Z,49.4
2018-08-25T12:34:55.660Z,49.4
2018-08-25T12:35:56.345Z,49.5
2018-08-25T12:36:57.023Z,48.6
2018-08-25T12:37:57.706Z,47.8
2018-08-25T12:38:58.418Z,47.8
2018-08-25T12:39:59.072Z,48.0
2018-08-25T12:40:59.796Z,47.8
2018-08-25T12:42:00.520Z,47.5
2018-08-25T12:43:01.235Z,47.9
2018-08-25T12:44:01.886Z,48.0
2018-08-25T12:45:02.652Z,47.7
2018-08-25T12:46:03.248Z,47.3
2018-08-25T12:47:03.930Z,46.9
2018-08-25T12:48:04.634Z,46.5
2018-08-25T12:49:05.360Z,46.7
2018-08-25T12:50:06.092Z,46.9
2018-08-25T12:51:06.788Z,47.4
2018-08-25T12:52:07.469Z,47.0
2018-08-25T12:53:08.153Z,47.1
2018-08-25T12:54:09.035Z,47.2
2018-08-25T12:55:09.725Z,46.2
2018-08-25T12:56:10.447Z,46.3
2018-08-25T12:57:11.171Z,45.9
2018-08-25T12:58:11.891Z,46.4
2018-08-25T12:59:12.597Z,45.8
2018-08-25T13:00:13.216Z,45.2
2018-08-25T13:01:13.897Z,44.6
2018-08-25T13:02:14.583Z,44.6
2018-08-25T13:03:15.305Z,44.9
2018-08-25T13:04:15.987Z,44.9
2018-08-25T13:05:16.671Z,44.7
2018-08-25T13:06:17.351Z,44.4
2018-08-25T13:07:18.064Z,44.8
2018-08-25T13:08:18.760Z,45.0
2018-08-25T13:09:19.492Z,45.3
2018-08-25T13:10:20.217Z,45.7
2018-08-25T13:11:20.899Z,45.2
2018-08-25T13:12:21.580Z,45.2
2018-08-25T13:13:22.261Z,45.6
2018-08-25T13:14:22.945Z,45.6
2018-08-25T13:15:23.701Z,45.6
2018-08-25T13:16:24.352Z,45.1
2018-08-25T13:17:25.078Z,45.6
2018-08-25T13:18:25.759Z,45.6
2018-08-25T13:19:26.443Z,44.9
2018-08-25T13:20:27.125Z,45.0
2018-08-25T13:21:27.806Z,44.3
2018-08-25T13:22:28.490Z,44.5
2018-08-25T13:23:29.176Z,44.1
2018-08-25T13:24:29.853Z,44.3
2018-08-25T13:25:30.579Z,44.6
2018-08-25T13:26:31.261Z,44.5
2018-08-25T13:27:31.942Z,44.6
2018-08-25T13:28:32.624Z,44.3